Hansen Road, Wisconsin
Current Conditions -  °F | °C
As of 4:19 PM on Monday 24 Nov 2014 (Local Time) from KGRB Reporting Station
Light Snow Light Snow  
Wind Chill: 26°   Ceiling: 800
Heat Index: 34°   Visibility: 1.5mi
Dew Point: 32°   Wind: 10mph
Humidity: 92%   Direction: 290°WNW
Pressure: 29.29"   Gusts: NA
Location:  44.48°N, 88.0192°W
Report Text: KGRB 242219Z 29009KT 1 1/2SM -SN BR OVC008 01/00 A2929 RMK AO2 PRESRR P0003 T00110000
Loading
Personal Weather Stations






























Interactive Weather Map New forecast layout! Learn more

10-Day Weather Forecast

Advertisements
Track Severe Weather on mobile